Center Hill, Florida
Current Conditions -  °F | °C
As of 12:40 AM on Monday 22 Dec 2014 (Local Time) from KLEE Reporting Station
Heavy Rain Heavy Rain  
Wind Chill: 64°   Ceiling: 3200
Heat Index: 64°   Visibility: 2mi
Dew Point: 63°   Wind: 7mph
Humidity: 96%   Direction: 330°NNW
Pressure: 30.07"   Gusts: NA
Location:  28.65°N, 81.99°W
Report Text: KLEE 220540Z AUTO 33006KT 2SM +RA BR BKN032 BKN044 OVC050 18/17 A3007 RMK AO2 P0034 T01780172
Loading
Personal Weather Stations






























Interactive Weather Map New forecast layout! Learn more

10-Day Weather Forecast

Advertisements
Track Severe Weather on mobile